createdAt,value
2018-08-19T00:00:12.055Z,72.12
2018-08-19T00:01:11.974Z,72.79
2018-08-19T00:02:11.958Z,71.93
2018-08-19T00:03:11.939Z,72.50
2018-08-19T00:04:11.888Z,71.25
2018-08-19T00:05:11.872Z,71.06
2018-08-19T00:06:11.852Z,71.93
2018-08-19T00:07:11.813Z,70.87
2018-08-19T00:08:11.792Z,71.45
2018-08-19T00:09:11.779Z,70.97
2018-08-19T00:10:11.770Z,70.87
2018-08-19T00:11:11.735Z,70.97
2018-08-19T00:12:11.695Z,72.02
2018-08-19T00:13:11.672Z,71.35
2018-08-19T00:14:11.639Z,71.06
2018-08-19T00:15:11.618Z,72.02
2018-08-19T00:16:11.588Z,71.83
2018-08-19T00:17:11.595Z,71.22
2018-08-19T00:18:11.553Z,71.64
2018-08-19T00:19:11.537Z,70.84
2018-08-19T00:20:11.491Z,69.91
2018-08-19T00:21:11.474Z,69.68
2018-08-19T00:22:11.442Z,69.43
2018-08-19T00:23:11.415Z,69.68
2018-08-19T00:24:11.390Z,69.49
2018-08-19T00:25:11.402Z,69.30
2018-08-19T00:26:11.344Z,68.24
2018-08-19T00:27:11.316Z,69.62
2018-08-19T00:28:11.307Z,69.91
2018-08-19T00:29:11.266Z,69.43
2018-08-19T00:30:11.283Z,70.26
2018-08-19T00:31:11.218Z,70.74
2018-08-19T00:32:11.192Z,71.22
2018-08-19T00:33:11.164Z,70.93
2018-08-19T00:34:11.186Z,70.55
2018-08-19T00:35:11.156Z,69.87
2018-08-19T00:36:11.090Z,69.59
2018-08-19T00:37:11.066Z,69.20
2018-08-19T00:38:11.054Z,70.45
2018-08-19T00:39:11.014Z,69.87
2018-08-19T00:40:10.993Z,69.20
2018-08-19T00:41:10.960Z,68.44
2018-08-19T00:42:10.935Z,69.49
2018-08-19T00:43:10.931Z,69.11
2018-08-19T00:44:10.893Z,68.34
2018-08-19T00:45:10.866Z,68.24
2018-08-19T00:46:10.835Z,69.78
2018-08-19T00:47:10.816Z,70.36
2018-08-19T00:48:10.786Z,69.59
2018-08-19T00:49:10.771Z,69.40
2018-08-19T00:50:10.730Z,68.44
2018-08-19T00:51:10.714Z,69.40
2018-08-19T00:52:10.695Z,69.11
2018-08-19T00:53:10.658Z,69.11
2018-08-19T00:54:10.635Z,67.57
2018-08-19T00:55:10.666Z,67.67
2018-08-19T00:56:10.605Z,68.91
2018-08-19T00:57:10.569Z,69.20
2018-08-19T00:58:10.534Z,69.40
2018-08-19T00:59:10.541Z,69.49
2018-08-19T01:00:10.488Z,69.46
2018-08-19T01:01:10.481Z,69.11
2018-08-19T01:02:10.439Z,69.49
2018-08-19T01:03:10.456Z,70.07
2018-08-19T01:04:10.447Z,69.40
2018-08-19T01:05:10.353Z,69.59
2018-08-19T01:06:10.341Z,69.20
2018-08-19T01:07:10.308Z,69.87
2018-08-19T01:08:10.314Z,69.40
2018-08-19T01:09:10.251Z,68.24
2018-08-19T01:10:10.232Z,69.11
2018-08-19T01:11:10.255Z,68.24
2018-08-19T01:12:10.176Z,68.91
2018-08-19T01:13:10.153Z,69.59
2018-08-19T01:14:10.159Z,69.49
2018-08-19T01:15:10.106Z,69.30
2018-08-19T01:16:10.078Z,69.59
2018-08-19T01:17:10.081Z,69.68
2018-08-19T01:18:10.028Z,69.20
2018-08-19T01:19:10.009Z,68.34
2018-08-19T01:20:09.978Z,68.24
2018-08-19T01:21:09.963Z,69.87
2018-08-19T01:22:09.924Z,69.78
2018-08-19T01:23:09.932Z,69.59
2018-08-19T01:24:09.878Z,68.73
2018-08-19T01:25:09.858Z,68.82
2018-08-19T01:26:09.827Z,69.49
2018-08-19T01:27:09.804Z,68.82
2018-08-19T01:28:09.775Z,69.20
2018-08-19T01:29:09.770Z,69.68
2018-08-19T01:30:09.775Z,70.26
2018-08-19T01:31:09.701Z,69.68
2018-08-19T01:32:09.674Z,68.91
2018-08-19T01:33:09.664Z,67.09
2018-08-19T01:34:09.665Z,67.76
2018-08-19T01:35:09.659Z,68.91
2018-08-19T01:36:09.574Z,68.15
2018-08-19T01:37:09.553Z,68.24
2018-08-19T01:38:09.529Z,68.34
2018-08-19T01:39:09.509Z,68.88
2018-08-19T01:40:09.473Z,68.21
2018-08-19T01:41:09.460Z,68.02
2018-08-19T01:42:09.423Z,69.07
2018-08-19T01:43:09.395Z,69.49
2018-08-19T01:44:09.368Z,69.07
2018-08-19T01:45:09.367Z,68.12
2018-08-19T01:46:09.323Z,68.30
2018-08-19T01:47:09.292Z,67.35
2018-08-19T01:48:09.272Z,67.54
2018-08-19T01:49:09.248Z,68.21
2018-08-19T01:50:09.221Z,68.21
2018-08-19T01:51:09.207Z,66.77
2018-08-19T01:52:09.172Z,66.77
2018-08-19T01:53:09.143Z,67.44
2018-08-19T01:54:09.119Z,67.73
2018-08-19T01:55:09.168Z,66.67
2018-08-19T01:56:09.075Z,67.83
2018-08-19T01:57:09.056Z,67.73
2018-08-19T01:58:09.019Z,67.25
2018-08-19T01:59:08.994Z,66.67
2018-08-19T02:00:08.978Z,66.77
2018-08-19T02:01:08.946Z,66.86
2018-08-19T02:02:08.920Z,66.19
2018-08-19T02:03:08.897Z,67.16
2018-08-19T02:04:08.865Z,66.67
2018-08-19T02:05:08.920Z,66.86
2018-08-19T02:06:08.819Z,67.06
2018-08-19T02:07:08.802Z,66.58
2018-08-19T02:08:08.772Z,66.58
2018-08-19T02:09:08.754Z,67.16
2018-08-19T02:10:08.722Z,66.67
2018-08-19T02:11:08.686Z,66.58
2018-08-19T02:12:08.671Z,67.00
2018-08-19T02:13:08.644Z,67.25
2018-08-19T02:14:08.617Z,67.35
2018-08-19T02:15:08.602Z,67.25
2018-08-19T02:16:08.563Z,66.77
2018-08-19T02:17:08.539Z,66.10
2018-08-19T02:18:08.513Z,67.25
2018-08-19T02:19:08.505Z,66.58
2018-08-19T02:20:08.464Z,66.77
2018-08-19T02:21:08.470Z,66.58
2018-08-19T02:22:08.415Z,66.86
2018-08-19T02:23:08.392Z,67.47
2018-08-19T02:24:08.359Z,67.25
2018-08-19T02:25:08.343Z,65.81
2018-08-19T02:26:08.362Z,66.39
2018-08-19T02:27:08.287Z,66.96
2018-08-19T02:28:08.278Z,67.35
2018-08-19T02:29:08.267Z,66.96
2018-08-19T02:30:08.217Z,66.58
2018-08-19T02:31:08.182Z,66.58
2018-08-19T02:32:08.171Z,66.49
2018-08-19T02:33:08.134Z,65.52
2018-08-19T02:34:08.120Z,66.58
2018-08-19T02:35:08.083Z,65.72
2018-08-19T02:36:08.065Z,65.62
2018-08-19T02:37:08.081Z,66.00
2018-08-19T02:38:08.031Z,65.62
2018-08-19T02:39:07.980Z,65.62
2018-08-19T02:40:07.957Z,65.72
2018-08-19T02:41:07.989Z,65.72
2018-08-19T02:42:07.912Z,66.58
2018-08-19T02:43:07.903Z,66.39
2018-08-19T02:44:07.861Z,65.43
2018-08-19T02:45:07.828Z,64.66
2018-08-19T02:46:07.808Z,64.37
2018-08-19T02:47:07.780Z,65.81
2018-08-19T02:48:07.757Z,65.81
2018-08-19T02:49:07.730Z,64.95
2018-08-19T02:50:07.709Z,64.85
2018-08-19T02:51:07.683Z,64.47
2018-08-19T02:52:07.664Z,64.76
2018-08-19T02:53:07.625Z,64.18
2018-08-19T02:54:07.606Z,64.09
2018-08-19T02:55:07.589Z,65.14
2018-08-19T02:56:07.553Z,65.62
2018-08-19T02:57:07.533Z,65.62
2018-08-19T02:58:07.508Z,65.14
2018-08-19T02:59:07.481Z,64.95
2018-08-19T03:00:07.457Z,64.37
2018-08-19T03:01:07.432Z,65.81
2018-08-19T03:02:07.399Z,65.52
2018-08-19T03:03:07.382Z,65.11
2018-08-19T03:04:07.356Z,64.09
2018-08-19T03:05:07.328Z,63.89
2018-08-19T03:06:07.296Z,64.28
2018-08-19T03:07:07.280Z,63.89
2018-08-19T03:08:07.251Z,63.70
2018-08-19T03:09:07.224Z,63.99
2018-08-19T03:10:07.203Z,63.89
2018-08-19T03:11:07.168Z,64.34
2018-08-19T03:12:07.145Z,63.86
2018-08-19T03:13:07.130Z,64.05
2018-08-19T03:14:07.101Z,63.00
2018-08-19T03:15:07.207Z,63.38
2018-08-19T03:16:07.055Z,63.09
2018-08-19T03:17:07.024Z,63.67
2018-08-19T03:18:06.993Z,62.81
2018-08-19T03:19:06.976Z,63.03
2018-08-19T03:20:06.946Z,63.38
2018-08-19T03:21:06.926Z,63.76
2018-08-19T03:22:06.906Z,63.19
2018-08-19T03:23:06.871Z,63.19
2018-08-19T03:24:06.861Z,61.94
2018-08-19T03:25:06.826Z,62.52
2018-08-19T03:26:06.788Z,62.23
2018-08-19T03:27:06.775Z,61.75
2018-08-19T03:28:06.763Z,61.94
2018-08-19T03:29:06.724Z,62.23
2018-08-19T03:30:06.689Z,61.66
2018-08-19T03:31:06.672Z,61.75
2018-08-19T03:32:06.645Z,61.08
2018-08-19T03:33:06.626Z,61.66
2018-08-19T03:34:06.596Z,61.56
2018-08-19T03:35:06.571Z,61.27
2018-08-19T03:36:06.555Z,61.46
2018-08-19T03:37:06.542Z,62.42
2018-08-19T03:38:06.548Z,61.66
2018-08-19T03:39:06.468Z,61.94
2018-08-19T03:40:06.435Z,62.52
2018-08-19T03:41:06.418Z,62.52
2018-08-19T03:42:06.386Z,61.66
2018-08-19T03:43:06.366Z,61.56
2018-08-19T03:44:06.336Z,61.88
2018-08-19T03:45:06.316Z,61.94
2018-08-19T03:46:06.286Z,62.52
2018-08-19T03:47:06.267Z,62.65
2018-08-19T03:48:06.242Z,62.71
2018-08-19T03:49:06.209Z,62.36
2018-08-19T03:50:06.187Z,62.71
2018-08-19T03:51:06.164Z,62.81
2018-08-19T03:52:06.142Z,63.00
2018-08-19T03:53:06.113Z,62.33
2018-08-19T03:54:06.082Z,62.62
2018-08-19T03:55:06.067Z,62.90
2018-08-19T03:56:06.039Z,62.71
2018-08-19T03:57:06.006Z,62.90
2018-08-19T03:58:06.004Z,62.23
2018-08-19T03:59:05.974Z,61.75
2018-08-19T04:00:05.931Z,61.18
2018-08-19T04:01:05.911Z,60.89
2018-08-19T04:02:05.875Z,60.50
2018-08-19T04:03:05.854Z,61.27
2018-08-19T04:04:05.852Z,61.27
2018-08-19T04:05:05.803Z,60.50
2018-08-19T04:06:05.795Z,60.12
2018-08-19T04:07:05.760Z,60.60
2018-08-19T04:08:05.728Z,60.31
2018-08-19T04:09:05.699Z,60.60
2018-08-19T04:10:05.680Z,60.22
2018-08-19T04:11:05.662Z,59.93
2018-08-19T04:12:05.629Z,60.79
2018-08-19T04:13:05.600Z,60.41
2018-08-19T04:14:05.581Z,60.03
2018-08-19T04:15:05.550Z,60.60
2018-08-19T04:16:05.526Z,60.31
2018-08-19T04:17:05.502Z,60.03
2018-08-19T04:18:05.490Z,59.83
2018-08-19T04:19:05.450Z,59.06
2018-08-19T04:20:05.428Z,60.12
2018-08-19T04:21:05.395Z,59.74
2018-08-19T04:22:05.372Z,60.12
2018-08-19T04:23:05.356Z,59.83
2018-08-19T04:24:05.320Z,60.31
2018-08-19T04:25:05.296Z,60.79
2018-08-19T04:26:05.270Z,59.74
2018-08-19T04:27:05.251Z,60.03
2018-08-19T04:28:05.227Z,60.22
2018-08-19T04:29:05.196Z,60.41
2018-08-19T04:30:05.166Z,59.74
2018-08-19T04:31:05.152Z,60.50
2018-08-19T04:32:05.117Z,60.70
2018-08-19T04:33:05.107Z,60.31
2018-08-19T04:34:05.074Z,60.31
2018-08-19T04:35:05.041Z,60.12
2018-08-19T04:36:05.016Z,59.74
2018-08-19T04:37:04.992Z,59.74
2018-08-19T04:38:04.966Z,59.55
2018-08-19T04:39:04.936Z,59.26
2018-08-19T04:40:04.921Z,59.04
2018-08-19T04:41:04.897Z,58.78
2018-08-19T04:42:04.861Z,58.94
2018-08-19T04:43:04.848Z,59.06
2018-08-19T04:44:04.819Z,59.45
2018-08-19T04:45:04.791Z,59.36
2018-08-19T04:46:04.763Z,58.78
2018-08-19T04:47:04.749Z,58.69
2018-08-19T04:48:04.713Z,58.59
2018-08-19T04:49:04.687Z,58.59
2018-08-19T04:50:04.661Z,59.16
2018-08-19T04:51:04.638Z,59.83
2018-08-19T04:52:04.614Z,60.31
2018-08-19T04:53:04.585Z,60.22
2018-08-19T04:54:04.572Z,60.31
2018-08-19T04:55:04.541Z,59.06
2018-08-19T04:56:04.507Z,60.12
2018-08-19T04:57:04.501Z,60.79
2018-08-19T04:58:04.460Z,61.75
2018-08-19T04:59:04.431Z,61.56
2018-08-19T05:00:04.408Z,61.46
2018-08-19T05:01:04.379Z,61.37
2018-08-19T05:02:04.428Z,61.46
2018-08-19T05:03:04.330Z,61.18
2018-08-19T05:04:04.309Z,60.41
2018-08-19T05:05:04.286Z,60.03
2018-08-19T05:06:04.254Z,60.41
2018-08-19T05:07:04.233Z,60.22
2018-08-19T05:08:04.221Z,60.50
2018-08-19T05:09:04.182Z,60.03
2018-08-19T05:10:04.151Z,60.03
2018-08-19T05:11:04.135Z,60.22
2018-08-19T05:12:04.097Z,60.31
2018-08-19T05:13:04.080Z,60.03
2018-08-19T05:14:04.068Z,60.41
2018-08-19T05:15:04.033Z,59.06
2018-08-19T05:16:04.002Z,58.97
2018-08-19T05:17:03.971Z,59.26
2018-08-19T05:18:03.950Z,59.26
2018-08-19T05:19:03.920Z,58.97
2018-08-19T05:20:03.899Z,58.97
2018-08-19T05:21:03.889Z,58.49
2018-08-19T05:22:03.851Z,59.06
2018-08-19T05:23:03.819Z,58.87
2018-08-19T05:24:03.797Z,59.06
2018-08-19T05:25:03.773Z,58.78
2018-08-19T05:26:03.763Z,59.16
2018-08-19T05:27:03.722Z,60.12
2018-08-19T05:28:03.694Z,60.70
2018-08-19T05:29:03.673Z,60.70
2018-08-19T05:30:03.639Z,60.50
2018-08-19T05:31:03.647Z,60.03
2018-08-19T05:32:03.595Z,59.74
2018-08-19T05:33:03.566Z,59.06
2018-08-19T05:34:03.541Z,58.87
2018-08-19T05:35:03.515Z,58.78
2018-08-19T05:36:03.489Z,58.20
2018-08-19T05:37:03.466Z,58.87
2018-08-19T05:38:03.468Z,58.69
2018-08-19T05:39:03.417Z,57.92
2018-08-19T05:40:03.393Z,57.63
2018-08-19T05:41:03.384Z,57.15
2018-08-19T05:42:03.332Z,57.53
2018-08-19T05:43:03.316Z,56.86
2018-08-19T05:44:03.290Z,57.72
2018-08-19T05:45:03.261Z,56.76
2018-08-19T05:46:03.429Z,57.63
2018-08-19T05:47:03.339Z,56.76
2018-08-19T05:48:03.232Z,57.43
2018-08-19T05:49:03.165Z,57.72
2018-08-19T05:50:03.268Z,57.06
2018-08-19T05:51:03.143Z,56.57
2018-08-19T05:52:03.128Z,57.43
2018-08-19T05:53:03.076Z,57.56
2018-08-19T05:54:03.076Z,57.72
2018-08-19T05:55:03.021Z,57.92
2018-08-19T05:56:02.986Z,57.95
2018-08-19T05:57:02.961Z,57.95
2018-08-19T05:58:02.933Z,56.51
2018-08-19T05:59:02.908Z,56.70
2018-08-19T06:00:02.886Z,56.60
2018-08-19T06:01:02.946Z,56.79
2018-08-19T06:02:02.824Z,56.51
2018-08-19T06:03:02.820Z,56.22
2018-08-19T06:04:02.782Z,55.16
2018-08-19T06:05:02.765Z,55.93
2018-08-19T06:06:02.730Z,56.22
2018-08-19T06:07:02.723Z,55.64
2018-08-19T06:08:02.677Z,55.55
2018-08-19T06:09:02.656Z,55.64
2018-08-19T06:10:02.626Z,55.93
2018-08-19T06:11:02.602Z,56.60
2018-08-19T06:12:02.575Z,56.51
2018-08-19T06:13:02.553Z,56.70
2018-08-19T06:14:02.555Z,56.70
2018-08-19T06:15:02.563Z,56.70
2018-08-19T06:16:02.502Z,56.70
2018-08-19T06:17:02.498Z,56.60
2018-08-19T06:18:02.428Z,58.52
2018-08-19T06:19:02.396Z,57.75
2018-08-19T06:20:02.374Z,58.81
2018-08-19T06:21:02.350Z,58.71
2018-08-19T06:22:02.408Z,58.81
2018-08-19T06:23:02.295Z,58.42
2018-08-19T06:24:02.275Z,58.33
2018-08-19T06:25:02.259Z,58.55
2018-08-19T06:26:02.333Z,59.29
2018-08-19T06:27:02.240Z,59.12
2018-08-19T06:28:02.171Z,59.12
2018-08-19T06:29:02.148Z,59.12
2018-08-19T06:30:02.135Z,58.94
2018-08-19T06:31:02.103Z,58.64
2018-08-19T06:32:02.068Z,59.61
2018-08-19T06:33:02.049Z,59.89
2018-08-19T06:34:02.019Z,60.95
2018-08-19T06:35:02.203Z,60.57
2018-08-19T06:36:01.971Z,60.28
2018-08-19T06:37:01.947Z,60.18
2018-08-19T06:38:01.925Z,59.61
2018-08-19T06:39:01.897Z,60.38
2018-08-19T06:40:01.873Z,62.58
2018-08-19T06:41:01.860Z,61.91
2018-08-19T06:42:01.822Z,61.62
2018-08-19T06:43:01.804Z,61.91
2018-08-19T06:44:01.771Z,61.52
2018-08-19T06:45:01.742Z,62.71
2018-08-19T06:46:01.711Z,61.62
2018-08-19T06:47:01.696Z,61.55
2018-08-19T06:48:01.670Z,61.75
2018-08-19T06:49:01.637Z,61.65
2018-08-19T06:50:01.619Z,62.81
2018-08-19T06:51:01.585Z,62.61
2018-08-19T06:52:01.567Z,63.76
2018-08-19T06:53:01.541Z,64.34
2018-08-19T06:54:01.514Z,65.49
2018-08-19T06:55:01.491Z,65.20
2018-08-19T06:56:01.465Z,64.53
2018-08-19T06:57:01.436Z,64.34
2018-08-19T06:58:01.417Z,63.96
2018-08-19T06:59:01.385Z,64.72
2018-08-19T07:00:01.363Z,64.43
2018-08-19T07:01:01.341Z,64.63
2018-08-19T07:02:01.310Z,65.11
2018-08-19T07:03:01.293Z,65.62
2018-08-19T07:04:01.308Z,65.62
2018-08-19T07:05:01.252Z,67.54
2018-08-19T07:06:01.216Z,66.68
2018-08-19T07:07:01.185Z,67.35
2018-08-19T07:08:01.170Z,66.87
2018-08-19T07:09:01.134Z,66.00
2018-08-19T07:10:01.110Z,66.39
2018-08-19T07:11:01.083Z,68.21
2018-08-19T07:12:01.088Z,69.46
2018-08-19T07:13:01.043Z,69.08
2018-08-19T07:14:01.010Z,69.75
2018-08-19T07:15:00.987Z,70.62
2018-08-19T07:16:00.970Z,71.58
2018-08-19T07:17:00.936Z,72.25
2018-08-19T07:18:00.905Z,73.54
2018-08-19T07:19:00.891Z,72.09
2018-08-19T07:20:00.903Z,73.92
2018-08-19T07:21:00.842Z,74.17
2018-08-19T07:22:00.813Z,75.94
2018-08-19T07:23:00.792Z,74.60
2018-08-19T07:24:00.765Z,74.30
2018-08-19T07:25:00.737Z,73.06
2018-08-19T07:26:00.712Z,73.83
2018-08-19T07:27:00.684Z,73.92
2018-08-19T07:28:00.671Z,74.69
2018-08-19T07:29:00.637Z,79.21
2018-08-19T07:30:00.603Z,78.06
2018-08-19T07:31:00.591Z,78.06
2018-08-19T07:32:00.556Z,78.34
2018-08-19T07:33:00.537Z,82.57
2018-08-19T07:34:00.506Z,80.36
2018-08-19T07:35:00.485Z,80.27
2018-08-19T07:36:00.457Z,82.19
2018-08-19T07:37:00.545Z,80.27
2018-08-19T07:38:00.409Z,81.81
2018-08-19T07:39:00.384Z,80.36
2018-08-19T07:40:00.359Z,82.52
2018-08-19T07:41:00.339Z,81.65
2018-08-19T07:42:00.311Z,82.96
2018-08-19T07:43:00.284Z,84.73
2018-08-19T07:44:00.379Z,84.44
2018-08-19T07:45:00.229Z,83.77
2018-08-19T07:46:00.206Z,83.29
2018-08-19T07:47:00.187Z,83.00
2018-08-19T07:48:00.171Z,83.09
2018-08-19T07:49:00.130Z,83.48
2018-08-19T07:50:00.112Z,86.08
2018-08-19T07:51:00.081Z,85.98
2018-08-19T07:52:00.054Z,85.21
2018-08-19T07:53:00.074Z,85.50
2018-08-19T07:54:00.013Z,86.36
2018-08-19T07:55:00.011Z,87.04
2018-08-19T07:55:59.963Z,86.46
2018-08-19T07:56:59.935Z,87.90
2018-08-19T07:57:59.904Z,87.81
2018-08-19T07:58:59.881Z,91.36
2018-08-19T07:59:59.860Z,89.87
2018-08-19T08:00:59.831Z,89.83
2018-08-19T08:01:59.805Z,89.20
2018-08-19T08:02:59.787Z,89.64
2018-08-19T08:03:59.759Z,91.22
2018-08-19T08:04:59.728Z,90.35
2018-08-19T08:05:59.712Z,91.56
2018-08-19T08:06:59.681Z,90.45
2018-08-19T08:07:59.655Z,91.31
2018-08-19T08:08:59.632Z,91.22
2018-08-19T08:09:59.606Z,90.06
2018-08-19T08:10:59.623Z,90.64
2018-08-19T08:11:59.561Z,89.68
2018-08-19T08:12:59.537Z,89.68
2018-08-19T08:13:59.525Z,90.83
2018-08-19T08:14:59.476Z,91.22
2018-08-19T08:15:59.457Z,91.51
2018-08-19T08:16:59.435Z,90.35
2018-08-19T08:17:59.410Z,90.16
2018-08-19T08:18:59.390Z,89.97
2018-08-19T08:19:59.355Z,92.38
2018-08-19T08:20:59.333Z,91.80
2018-08-19T08:21:59.302Z,90.45
2018-08-19T08:22:59.287Z,90.16
2018-08-19T08:23:59.256Z,91.31
2018-08-19T08:24:59.235Z,90.73
2018-08-19T08:25:59.268Z,91.07
2018-08-19T08:26:59.180Z,90.59
2018-08-19T08:27:59.161Z,91.17
2018-08-19T08:28:59.133Z,90.30
2018-08-19T08:29:59.108Z,90.20
2018-08-19T08:30:59.083Z,92.32
2018-08-19T08:31:59.053Z,90.97
2018-08-19T08:32:59.037Z,90.88
2018-08-19T08:33:59.004Z,90.78
2018-08-19T08:34:58.991Z,89.82
2018-08-19T08:35:58.953Z,89.82
2018-08-19T08:36:58.935Z,90.97
2018-08-19T08:37:58.908Z,90.01
2018-08-19T08:38:58.905Z,90.50
2018-08-19T08:39:58.857Z,90.88
2018-08-19T08:40:58.835Z,90.11
2018-08-19T08:41:58.811Z,90.97
2018-08-19T08:42:58.795Z,91.12
2018-08-19T08:43:58.752Z,92.56
2018-08-19T08:44:58.731Z,92.37
2018-08-19T08:45:58.705Z,92.66
2018-08-19T08:46:58.682Z,91.99
2018-08-19T08:47:58.722Z,92.37
2018-08-19T08:48:58.636Z,92.85
2018-08-19T08:49:58.611Z,92.76
2018-08-19T08:50:58.609Z,91.99
2018-08-19T08:51:58.562Z,92.18
2018-08-19T08:52:58.528Z,92.08
2018-08-19T08:53:58.508Z,93.57
2018-08-19T08:54:58.480Z,93.28
2018-08-19T08:55:58.462Z,92.56
2018-08-19T08:56:58.438Z,92.22
2018-08-19T08:57:58.406Z,92.47
2018-08-19T08:58:58.398Z,92.22
2018-08-19T08:59:58.362Z,92.51
2018-08-19T09:00:58.335Z,92.22
2018-08-19T09:01:58.306Z,92.80
2018-08-19T09:02:58.290Z,92.61
2018-08-19T09:03:58.258Z,92.61
2018-08-19T09:04:58.241Z,92.41
2018-08-19T09:05:58.208Z,92.41
2018-08-19T09:06:58.192Z,92.13
2018-08-19T09:07:58.169Z,92.41
2018-08-19T09:08:58.138Z,91.93
2018-08-19T09:09:58.116Z,92.41
2018-08-19T09:10:58.094Z,91.79
2018-08-19T09:11:58.062Z,92.13
2018-08-19T09:12:58.038Z,92.08
2018-08-19T09:13:58.147Z,92.56
2018-08-19T09:14:57.984Z,92.37
2018-08-19T09:15:57.962Z,92.18
2018-08-19T09:16:57.942Z,91.99
2018-08-19T09:17:57.919Z,92.18
2018-08-19T09:18:57.887Z,92.66
2018-08-19T09:19:57.865Z,92.27
2018-08-19T09:20:57.839Z,91.99
2018-08-19T09:21:57.816Z,93.52
2018-08-19T09:22:57.846Z,92.08
2018-08-19T09:23:57.762Z,92.27
2018-08-19T09:24:57.757Z,92.08
2018-08-19T09:25:57.800Z,91.99
2018-08-19T09:26:57.693Z,92.47
2018-08-19T09:27:57.786Z,92.18
2018-08-19T09:28:57.654Z,92.08
2018-08-19T09:29:57.621Z,92.27
2018-08-19T09:30:57.591Z,92.08
2018-08-19T09:31:57.561Z,91.79
2018-08-19T09:32:57.603Z,92.37
2018-08-19T09:33:57.624Z,92.27
2018-08-19T09:34:57.500Z,91.99
2018-08-19T09:35:57.473Z,91.79
2018-08-19T09:36:57.439Z,91.69
2018-08-19T09:37:57.422Z,91.89
2018-08-19T09:38:57.388Z,91.74
2018-08-19T09:39:57.364Z,92.32
2018-08-19T09:40:57.345Z,91.93
2018-08-19T09:41:57.312Z,92.22
2018-08-19T09:42:57.297Z,91.36
2018-08-19T09:43:57.273Z,91.06
2018-08-19T09:44:57.243Z,91.93
2018-08-19T09:45:57.451Z,91.74
2018-08-19T09:46:57.204Z,91.64
2018-08-19T09:47:57.362Z,90.58
2018-08-19T09:48:57.145Z,90.63
2018-08-19T09:49:57.114Z,90.20
2018-08-19T09:50:57.097Z,90.24
2018-08-19T09:51:57.073Z,88.22
2018-08-19T09:52:57.055Z,89.86
2018-08-19T09:53:57.017Z,89.95
2018-08-19T09:54:57.000Z,88.84
2018-08-19T09:55:56.968Z,89.71
2018-08-19T09:56:56.949Z,90.48
2018-08-19T09:57:56.919Z,89.61
2018-08-19T09:58:56.903Z,88.40
2018-08-19T09:59:56.873Z,86.66
2018-08-19T10:00:56.850Z,84.44
2018-08-19T10:01:56.822Z,81.84
2018-08-19T10:02:56.798Z,82.09
2018-08-19T10:03:56.769Z,84.83
2018-08-19T10:04:56.761Z,83.73
2018-08-19T10:05:56.739Z,83.44
2018-08-19T10:06:56.697Z,84.69
2018-08-19T10:07:56.678Z,86.43
2018-08-19T10:08:56.653Z,86.04
2018-08-19T10:09:56.631Z,85.56
2018-08-19T10:10:56.613Z,86.43
2018-08-19T10:11:56.583Z,87.88
2018-08-19T10:12:56.563Z,86.04
2018-08-19T10:13:56.530Z,85.75
2018-08-19T10:14:56.505Z,87.01
2018-08-19T10:15:56.525Z,84.11
2018-08-19T10:16:56.462Z,85.66
2018-08-19T10:17:56.428Z,85.37
2018-08-19T10:18:56.407Z,86.68
2018-08-19T10:19:56.385Z,87.64
2018-08-19T10:20:56.352Z,86.96
2018-08-19T10:21:56.331Z,88.02
2018-08-19T10:22:56.310Z,87.83
2018-08-19T10:23:56.277Z,88.51
2018-08-19T10:24:56.261Z,87.59
2018-08-19T10:25:56.245Z,87.20
2018-08-19T10:26:56.212Z,86.62
2018-08-19T10:27:56.182Z,86.82
2018-08-19T10:28:56.166Z,86.14
2018-08-19T10:29:56.133Z,87.97
2018-08-19T10:30:56.112Z,86.14
2018-08-19T10:31:56.091Z,86.43
2018-08-19T10:32:56.059Z,88.84
2018-08-19T10:33:56.044Z,86.62
2018-08-19T10:34:56.044Z,86.62
2018-08-19T10:35:55.988Z,86.72
2018-08-19T10:36:55.968Z,86.72
2018-08-19T10:37:55.947Z,86.62
2018-08-19T10:38:55.912Z,84.79
2018-08-19T10:39:55.894Z,84.41
2018-08-19T10:40:55.861Z,84.06
2018-08-19T10:41:55.848Z,84.79
2018-08-19T10:42:55.812Z,85.31
2018-08-19T10:43:55.791Z,83.96
2018-08-19T10:44:55.770Z,80.10
2018-08-19T10:45:55.739Z,80.49
2018-08-19T10:46:55.723Z,82.51
2018-08-19T10:47:55.695Z,85.41
2018-08-19T10:48:55.668Z,86.66
2018-08-19T10:49:55.647Z,84.64
2018-08-19T10:50:55.617Z,83.39
2018-08-19T10:51:55.601Z,84.83
2018-08-19T10:52:55.574Z,83.62
2018-08-19T10:53:55.548Z,83.52
2018-08-19T10:54:55.521Z,83.62
2018-08-19T10:55:55.501Z,81.01
2018-08-19T10:56:55.676Z,81.98
2018-08-19T10:57:55.444Z,78.79
2018-08-19T10:58:55.432Z,81.49
2018-08-19T10:59:55.484Z,82.46
2018-08-19T11:00:55.386Z,83.42
2018-08-19T11:01:55.351Z,82.94
2018-08-19T11:02:55.331Z,83.23
2018-08-19T11:03:55.311Z,82.26
2018-08-19T11:04:55.282Z,78.21
2018-08-19T11:05:55.264Z,78.79
2018-08-19T11:06:55.230Z,80.38
2018-08-19T11:07:55.211Z,79.60
2018-08-19T11:08:55.183Z,79.31
2018-08-19T11:09:55.163Z,78.64
2018-08-19T11:10:55.146Z,77.44
2018-08-19T11:11:55.119Z,78.15
2018-08-19T11:12:55.087Z,75.16
2018-08-19T11:13:55.068Z,74.06
2018-08-19T11:14:55.038Z,75.35
2018-08-19T11:15:55.013Z,75.45
2018-08-19T11:16:54.991Z,74.58
2018-08-19T11:17:54.970Z,75.93
2018-08-19T11:18:54.945Z,77.96
2018-08-19T11:19:54.915Z,76.42
2018-08-19T11:20:54.901Z,78.44
2018-08-19T11:21:54.873Z,76.12
2018-08-19T11:22:54.845Z,78.15
2018-08-19T11:23:54.820Z,78.06
2018-08-19T11:24:54.792Z,77.19
2018-08-19T11:25:54.770Z,74.96
2018-08-19T11:26:54.756Z,76.42
2018-08-19T11:27:54.721Z,74.58
2018-08-19T11:28:54.706Z,74.77
2018-08-19T11:29:54.671Z,75.45
2018-08-19T11:30:54.655Z,74.48
2018-08-19T11:31:54.629Z,72.36
2018-08-19T11:32:54.603Z,73.13
2018-08-19T11:33:54.589Z,73.32
2018-08-19T11:34:54.550Z,71.78
2018-08-19T11:35:54.530Z,72.45
2018-08-19T11:36:54.511Z,73.13
2018-08-19T11:37:54.485Z,72.45
2018-08-19T11:38:54.463Z,71.58
2018-08-19T11:39:54.431Z,70.23
2018-08-19T11:40:54.410Z,72.74
2018-08-19T11:41:54.386Z,74.77
2018-08-19T11:42:54.364Z,74.48
2018-08-19T11:43:54.343Z,75.26
2018-08-19T11:44:54.319Z,77.22
2018-08-19T11:45:54.288Z,75.97
2018-08-19T11:46:54.267Z,72.49
2018-08-19T11:47:54.273Z,71.81
2018-08-19T11:48:54.254Z,73.26
2018-08-19T11:49:54.197Z,72.39
2018-08-19T11:50:54.167Z,73.26
2018-08-19T11:51:54.144Z,70.65
2018-08-19T11:52:54.127Z,68.91
2018-08-19T11:53:54.096Z,70.07
2018-08-19T11:54:54.075Z,70.07
2018-08-19T11:55:54.068Z,68.75
2018-08-19T11:56:54.027Z,69.82
2018-08-19T11:57:54.006Z,69.14
2018-08-19T11:58:53.984Z,69.82
2018-08-19T11:59:53.954Z,69.92
2018-08-19T12:00:53.982Z,67.11
2018-08-19T12:01:53.901Z,66.72
2018-08-19T12:02:53.888Z,67.88
2018-08-19T12:03:53.858Z,67.88
2018-08-19T12:04:53.845Z,68.66
2018-08-19T12:05:53.812Z,66.91
2018-08-19T12:06:53.787Z,68.17
2018-08-19T12:07:53.760Z,67.30
2018-08-19T12:08:53.743Z,69.14
2018-08-19T12:09:53.708Z,70.10
2018-08-19T12:10:53.696Z,67.98
2018-08-19T12:11:53.668Z,68.56
2018-08-19T12:12:53.647Z,65.75
2018-08-19T12:13:53.626Z,65.08
2018-08-19T12:14:53.601Z,63.34
2018-08-19T12:15:53.571Z,64.59
2018-08-19T12:16:53.603Z,64.01
2018-08-19T12:17:53.522Z,66.14
2018-08-19T12:18:53.500Z,66.24
2018-08-19T12:19:53.475Z,66.56
2018-08-19T12:20:53.454Z,67.98
2018-08-19T12:21:53.424Z,65.50
2018-08-19T12:22:53.407Z,64.31
2018-08-19T12:23:53.375Z,64.98
2018-08-19T12:24:53.364Z,63.92
2018-08-19T12:25:53.339Z,62.95
2018-08-19T12:26:53.313Z,65.01
2018-08-19T12:27:53.371Z,64.69
2018-08-19T12:28:53.272Z,62.21
2018-08-19T12:29:53.247Z,62.11
2018-08-19T12:30:53.703Z,62.59
2018-08-19T12:31:53.234Z,61.82
2018-08-19T12:32:53.165Z,62.01
2018-08-19T12:33:53.160Z,61.15
2018-08-19T12:34:53.122Z,61.79
2018-08-19T12:35:53.101Z,63.66
2018-08-19T12:36:53.069Z,62.88
2018-08-19T12:37:53.068Z,61.63
2018-08-19T12:38:53.017Z,62.79
2018-08-19T12:39:52.998Z,61.24
2018-08-19T12:40:52.976Z,61.43
2018-08-19T12:41:52.946Z,61.24
2018-08-19T12:42:52.934Z,60.47
2018-08-19T12:43:52.906Z,60.75
2018-08-19T12:44:52.960Z,60.37
2018-08-19T12:45:52.852Z,60.08
2018-08-19T12:46:52.828Z,60.57
2018-08-19T12:47:52.817Z,61.24
2018-08-19T12:48:52.790Z,62.01
2018-08-19T12:49:52.759Z,62.40
2018-08-19T12:50:52.734Z,62.88
2018-08-19T12:51:52.779Z,61.82